createdAt,value
2023-03-08T00:01:17.967Z,16.00
2023-03-08T00:03:46.816Z,19.10
2023-03-08T00:06:17.075Z,22.50
2023-03-08T00:08:48.557Z,20.00
2023-03-08T00:11:17.095Z,22.53
2023-03-08T00:13:46.665Z,20.17
2023-03-08T00:16:15.279Z,17.53
2023-03-08T00:18:43.889Z,19.73
2023-03-08T00:21:13.596Z,17.13
2023-03-08T00:23:43.106Z,16.40
2023-03-08T00:26:13.492Z,17.40
2023-03-08T00:28:42.593Z,16.13
2023-03-08T00:31:12.355Z,16.63
2023-03-08T00:33:41.315Z,16.63
2023-03-08T00:36:13.302Z,17.67
2023-03-08T00:38:41.961Z,15.60
2023-03-08T00:41:12.095Z,17.50
2023-03-08T00:43:42.276Z,14.93
2023-03-08T00:46:10.871Z,18.47
2023-03-08T00:48:39.287Z,15.93
2023-03-08T00:51:08.041Z,18.40
2023-03-08T00:53:36.535Z,16.13
2023-03-08T00:56:05.323Z,15.43
2023-03-08T00:58:35.131Z,15.23
2023-03-08T01:01:03.664Z,14.23
2023-03-08T01:03:32.123Z,15.73
2023-03-08T01:06:00.838Z,17.50
2023-03-08T01:08:29.432Z,15.87
2023-03-08T01:10:59.370Z,17.27
2023-03-08T01:13:29.921Z,15.07
2023-03-08T01:16:00.304Z,18.90
2023-03-08T01:18:28.993Z,19.87
2023-03-08T01:20:58.652Z,16.90
2023-03-08T01:23:27.242Z,17.03
2023-03-08T01:26:02.300Z,17.07
2023-03-08T01:28:31.101Z,17.37
2023-03-08T01:31:04.709Z,18.00
2023-03-08T01:33:33.285Z,20.47
2023-03-08T01:36:04.607Z,18.17
2023-03-08T01:38:33.069Z,19.87
2023-03-08T01:41:02.523Z,20.67
2023-03-08T01:43:33.226Z,19.50
2023-03-08T01:46:17.315Z,19.97
2023-03-08T01:48:49.160Z,18.27
2023-03-08T01:51:22.047Z,18.53
2023-03-08T01:53:50.578Z,20.97
2023-03-08T01:56:20.589Z,19.73
2023-03-08T01:58:50.649Z,20.27
2023-03-08T02:01:21.088Z,19.93
2023-03-08T02:03:49.702Z,19.50
2023-03-08T02:06:18.594Z,18.97
2023-03-08T02:08:47.011Z,18.83
2023-03-08T02:11:17.007Z,20.33
2023-03-08T02:13:45.432Z,22.33
2023-03-08T02:16:15.699Z,18.37
2023-03-08T02:18:57.027Z,20.90
2023-03-08T02:21:26.563Z,17.27
2023-03-08T02:23:56.965Z,19.77
2023-03-08T02:26:25.468Z,15.07
2023-03-08T02:28:53.874Z,20.60
2023-03-08T02:31:22.306Z,17.57
2023-03-08T02:33:50.781Z,19.27
2023-03-08T02:36:19.267Z,18.43
2023-03-08T02:38:47.689Z,24.50
2023-03-08T02:41:17.484Z,27.17
2023-03-08T02:43:45.930Z,20.60
2023-03-08T02:46:14.772Z,18.97
2023-03-08T02:48:44.560Z,18.77
2023-03-08T02:51:13.012Z,20.40
2023-03-08T02:53:41.384Z,21.43
2023-03-08T02:56:09.880Z,20.97
2023-03-08T02:58:39.720Z,21.43
2023-03-08T03:01:13.142Z,22.60
2023-03-08T03:03:42.254Z,20.50
2023-03-08T03:06:16.327Z,19.07
2023-03-08T03:08:44.920Z,21.43
2023-03-08T03:11:14.480Z,19.10
2023-03-08T03:13:44.371Z,27.50
2023-03-08T03:16:14.348Z,21.67
2023-03-08T03:18:43.505Z,22.70
2023-03-08T03:21:13.915Z,20.90
2023-03-08T03:23:42.982Z,20.43
2023-03-08T03:26:13.697Z,21.97
2023-03-08T03:28:43.880Z,18.27
2023-03-08T03:31:14.584Z,21.33
2023-03-08T03:33:43.396Z,22.17
2023-03-08T03:36:14.635Z,20.83
2023-03-08T03:38:43.226Z,20.10
2023-03-08T03:41:13.210Z,22.43
2023-03-08T03:43:43.420Z,22.30
2023-03-08T03:46:14.256Z,22.67
2023-03-08T03:48:43.080Z,22.00
2023-03-08T03:51:13.368Z,22.33
2023-03-08T03:53:42.022Z,22.07
2023-03-08T03:56:14.904Z,23.37
2023-03-08T03:58:44.876Z,21.47
2023-03-08T04:01:15.843Z,23.40
2023-03-08T04:03:44.754Z,21.87
2023-03-08T04:06:14.787Z,19.63
2023-03-08T04:08:43.653Z,21.23
2023-03-08T04:11:13.606Z,21.73
2023-03-08T04:13:42.179Z,20.40
2023-03-08T04:16:13.268Z,19.77
2023-03-08T04:18:41.881Z,18.00
2023-03-08T04:21:10.887Z,24.20
2023-03-08T04:23:39.584Z,18.83
2023-03-08T04:26:08.738Z,22.87
2023-03-08T04:28:37.354Z,21.40
2023-03-08T04:31:15.152Z,21.13
2023-03-08T04:33:43.642Z,21.27
2023-03-08T04:36:12.273Z,22.33
2023-03-08T04:38:40.805Z,22.63
2023-03-08T04:41:12.136Z,20.77
2023-03-08T04:43:41.748Z,20.47
2023-03-08T04:46:10.202Z,18.03
2023-03-08T04:48:40.617Z,19.10
2023-03-08T04:51:10.533Z,18.40
2023-03-08T04:53:41.540Z,20.27
2023-03-08T04:56:10.499Z,20.70
2023-03-08T04:58:39.404Z,21.20
2023-03-08T05:01:12.865Z,23.47
2023-03-08T05:03:43.107Z,19.97
2023-03-08T05:06:12.495Z,21.57
2023-03-08T05:08:41.506Z,21.47
2023-03-08T05:11:10.406Z,21.03
2023-03-08T05:13:40.340Z,19.13
2023-03-08T05:16:09.355Z,26.27
2023-03-08T05:18:37.947Z,29.67
2023-03-08T05:21:09.144Z,25.57
2023-03-08T05:23:37.717Z,22.87
2023-03-08T05:26:07.521Z,20.07
2023-03-08T05:28:38.143Z,21.03
2023-03-08T05:31:07.925Z,20.03
2023-03-08T05:33:37.193Z,22.07
2023-03-08T05:36:08.407Z,22.47
2023-03-08T05:38:36.920Z,21.73
2023-03-08T05:41:06.790Z,22.17
2023-03-08T05:43:35.675Z,19.23
2023-03-08T05:46:05.912Z,21.27
2023-03-08T05:48:35.926Z,20.23
2023-03-08T05:51:08.535Z,19.87
2023-03-08T05:53:37.120Z,18.80
2023-03-08T05:56:10.685Z,22.20
2023-03-08T05:58:40.919Z,18.53
2023-03-08T06:01:16.409Z,18.37
2023-03-08T06:03:44.892Z,18.37
2023-03-08T06:06:14.961Z,22.57
2023-03-08T06:08:43.624Z,23.27
2023-03-08T06:11:12.243Z,23.47
2023-03-08T06:13:40.805Z,25.20
2023-03-08T06:16:10.143Z,21.93
2023-03-08T06:18:40.497Z,21.60
2023-03-08T06:21:10.604Z,25.53
2023-03-08T06:23:40.446Z,25.00
2023-03-08T06:26:10.150Z,21.33
2023-03-08T06:28:40.276Z,25.20
2023-03-08T06:31:09.417Z,19.17
2023-03-08T06:33:37.827Z,19.17
2023-03-08T06:36:08.234Z,20.67
2023-03-08T06:38:38.215Z,20.40
2023-03-08T06:41:08.700Z,22.73
2023-03-08T06:43:37.632Z,18.23
2023-03-08T06:46:06.688Z,18.10
2023-03-08T06:48:35.909Z,19.07
2023-03-08T06:51:04.617Z,19.17
2023-03-08T06:53:33.144Z,17.57
2023-03-08T06:56:03.111Z,18.00
2023-03-08T06:58:33.056Z,18.73
2023-03-08T07:01:01.615Z,21.17
2023-03-08T07:03:30.150Z,22.17
2023-03-08T07:06:00.255Z,20.00
2023-03-08T07:08:28.786Z,25.23
2023-03-08T07:10:58.458Z,19.97
2023-03-08T07:13:27.341Z,22.17
2023-03-08T07:15:57.633Z,18.30
2023-03-08T07:18:26.741Z,18.73
2023-03-08T07:20:55.905Z,18.67
2023-03-08T07:23:24.378Z,17.27
2023-03-08T07:25:52.762Z,16.97
2023-03-08T07:28:21.183Z,19.37
2023-03-08T07:30:50.242Z,20.03
2023-03-08T07:33:21.268Z,20.43
2023-03-08T07:35:49.876Z,16.73
2023-03-08T07:38:19.194Z,15.77
2023-03-08T07:40:47.623Z,15.43
2023-03-08T07:43:16.126Z,14.93
2023-03-08T07:45:44.505Z,14.80
2023-03-08T07:48:12.926Z,15.47
2023-03-08T07:50:42.729Z,12.43
2023-03-08T07:53:11.157Z,16.23
2023-03-08T07:55:39.612Z,13.97
2023-03-08T07:58:08.041Z,13.23
2023-03-08T08:00:36.498Z,20.67
2023-03-08T08:03:05.027Z,15.07
2023-03-08T08:05:33.581Z,12.80
2023-03-08T08:08:03.462Z,13.97
2023-03-08T08:10:32.018Z,13.63
2023-03-08T08:13:00.442Z,14.23
2023-03-08T08:15:30.947Z,11.33
2023-03-08T08:17:59.373Z,15.80
2023-03-08T08:20:28.013Z,13.83
2023-03-08T08:22:56.686Z,14.50
2023-03-08T08:25:26.539Z,15.70
2023-03-08T08:27:55.132Z,14.87
2023-03-08T08:30:23.739Z,14.53
2023-03-08T08:32:52.192Z,15.20
2023-03-08T08:35:20.612Z,13.33
2023-03-08T08:37:49.065Z,13.67
2023-03-08T08:40:17.714Z,13.53
2023-03-08T08:42:47.669Z,14.17
2023-03-08T08:45:16.119Z,13.27
2023-03-08T08:47:45.558Z,14.40
2023-03-08T08:50:14.263Z,11.70
2023-03-08T08:52:42.869Z,19.87
2023-03-08T08:55:11.783Z,14.83
2023-03-08T08:57:40.255Z,19.43
2023-03-08T09:00:11.857Z,13.37
2023-03-08T09:02:40.322Z,13.57
2023-03-08T09:05:09.540Z,11.33
2023-03-08T09:07:39.282Z,11.17
2023-03-08T09:10:09.496Z,11.83
2023-03-08T09:12:38.010Z,12.10
2023-03-08T09:15:07.619Z,12.77
2023-03-08T09:17:37.532Z,12.30
2023-03-08T09:20:09.325Z,11.47
2023-03-08T09:22:37.853Z,12.73
2023-03-08T09:25:06.782Z,11.53
2023-03-08T09:27:35.408Z,11.87
2023-03-08T09:30:03.906Z,10.90
2023-03-08T09:32:34.603Z,12.40
2023-03-08T09:35:05.332Z,18.23
2023-03-08T09:37:33.928Z,13.53
2023-03-08T09:40:02.416Z,12.13
2023-03-08T09:42:33.482Z,11.03
2023-03-08T09:45:14.786Z,12.47
2023-03-08T09:47:47.338Z,13.57
2023-03-08T09:50:22.806Z,12.00
2023-03-08T09:52:54.542Z,11.80
2023-03-08T09:55:30.182Z,14.03
2023-03-08T09:58:00.872Z,10.53
2023-03-08T10:00:31.582Z,15.47
2023-03-08T10:03:15.840Z,12.13
2023-03-08T10:05:48.997Z,13.73
2023-03-08T10:08:19.538Z,16.60
2023-03-08T10:10:53.410Z,12.57
2023-03-08T10:13:30.627Z,13.73
2023-03-08T10:16:07.010Z,12.67
2023-03-08T10:18:39.147Z,14.67
2023-03-08T10:21:12.491Z,14.63
2023-03-08T10:23:41.770Z,13.07
2023-03-08T10:26:12.667Z,11.83
2023-03-08T10:28:41.441Z,17.43
2023-03-08T10:31:23.241Z,12.33
2023-03-08T10:33:55.733Z,14.00
2023-03-08T10:36:26.700Z,13.93
2023-03-08T10:39:01.320Z,18.73
2023-03-08T10:41:32.890Z,13.30
2023-03-08T10:44:01.647Z,14.80
2023-03-08T10:46:32.960Z,12.87
2023-03-08T10:49:15.120Z,12.40
2023-03-08T10:51:53.772Z,13.17
2023-03-08T10:54:22.310Z,11.87
2023-03-08T10:56:56.119Z,13.07
2023-03-08T10:59:32.294Z,11.97
2023-03-08T11:02:02.906Z,10.97
2023-03-08T11:04:32.787Z,12.40
2023-03-08T11:07:12.935Z,11.30
2023-03-08T11:09:41.469Z,12.23
2023-03-08T11:12:23.811Z,11.60
2023-03-08T11:14:52.989Z,11.27
2023-03-08T11:17:26.344Z,11.00
2023-03-08T11:20:01.634Z,11.03
2023-03-08T11:22:52.013Z,11.43
2023-03-08T11:25:34.490Z,12.50
2023-03-08T11:28:15.954Z,12.53
2023-03-08T11:30:55.089Z,12.13
2023-03-08T11:33:44.768Z,11.40
2023-03-08T11:36:18.582Z,13.00
2023-03-08T11:38:53.201Z,11.90
2023-03-08T11:41:26.155Z,13.03
2023-03-08T11:44:05.348Z,13.13
2023-03-08T11:46:42.835Z,13.33
2023-03-08T11:49:27.556Z,15.40
2023-03-08T11:52:01.790Z,12.33
2023-03-08T11:54:42.623Z,14.17
2023-03-08T11:57:12.569Z,17.20
2023-03-08T11:59:44.457Z,17.43
2023-03-08T12:02:18.675Z,12.70
2023-03-08T12:04:53.319Z,12.03
2023-03-08T12:07:26.758Z,14.00
2023-03-08T12:10:00.238Z,12.90
2023-03-08T12:12:32.545Z,12.30
2023-03-08T12:15:06.954Z,12.37
2023-03-08T12:17:39.646Z,13.70
2023-03-08T12:20:15.082Z,13.43
2023-03-08T12:22:47.271Z,13.73
2023-03-08T12:25:25.339Z,13.10
2023-03-08T12:27:57.870Z,13.23
2023-03-08T12:30:35.103Z,13.97
2023-03-08T12:33:05.342Z,11.83
2023-03-08T12:35:35.875Z,14.90
2023-03-08T12:38:07.688Z,14.43
2023-03-08T12:40:42.827Z,12.57
2023-03-08T12:43:13.468Z,12.83
2023-03-08T12:45:43.089Z,12.53
2023-03-08T12:48:21.720Z,14.20
2023-03-08T12:51:00.827Z,14.73
2023-03-08T12:53:37.060Z,11.67
2023-03-08T12:56:17.140Z,13.33
2023-03-08T12:58:51.842Z,11.93
2023-03-08T13:01:41.469Z,11.80
2023-03-08T13:04:39.651Z,12.57
2023-03-08T13:07:34.380Z,11.83
2023-03-08T13:10:08.524Z,15.63
2023-03-08T13:12:55.116Z,15.40
2023-03-08T13:15:26.248Z,12.00
2023-03-08T13:18:00.795Z,14.20
2023-03-08T13:20:35.487Z,12.40
2023-03-08T13:23:07.030Z,12.47
2023-03-08T13:25:52.068Z,15.00
2023-03-08T13:28:23.789Z,15.47
2023-03-08T13:30:54.013Z,12.03
2023-03-08T13:33:24.310Z,12.77
2023-03-08T13:35:57.963Z,13.03
2023-03-08T13:38:28.708Z,12.77
2023-03-08T13:40:58.313Z,13.23
2023-03-08T13:43:30.148Z,11.57
2023-03-08T13:46:00.932Z,12.47
2023-03-08T13:48:31.556Z,12.63
2023-03-08T13:51:00.554Z,11.03
2023-03-08T13:53:30.800Z,12.80
2023-03-08T13:56:00.882Z,11.80
2023-03-08T13:58:33.728Z,13.30
2023-03-08T14:01:04.700Z,9.80
2023-03-08T14:03:34.308Z,13.40
2023-03-08T14:06:02.774Z,14.23
2023-03-08T14:08:31.287Z,11.30
2023-03-08T14:11:02.084Z,9.37
2023-03-08T14:13:33.473Z,12.03
2023-03-08T14:16:04.001Z,8.93
2023-03-08T14:18:36.141Z,7.93
2023-03-08T14:21:14.479Z,6.07
2023-03-08T14:23:44.441Z,8.40
2023-03-08T14:26:31.143Z,8.27
2023-03-08T14:29:22.628Z,6.23
2023-03-08T14:32:02.855Z,5.30
2023-03-08T14:34:33.992Z,8.70
2023-03-08T14:37:04.827Z,5.97
2023-03-08T14:39:35.037Z,6.63
2023-03-08T14:42:11.705Z,6.03
2023-03-08T14:44:42.604Z,6.20
2023-03-08T14:47:18.726Z,6.00
2023-03-08T14:49:56.234Z,6.47
2023-03-08T14:52:24.763Z,7.13
2023-03-08T14:54:53.298Z,6.90
2023-03-08T14:57:24.199Z,5.27
2023-03-08T14:59:55.144Z,6.43
2023-03-08T15:02:23.970Z,5.43
2023-03-08T15:04:52.405Z,6.57
2023-03-08T15:07:23.251Z,5.77
2023-03-08T15:09:52.784Z,5.53
2023-03-08T15:12:21.203Z,6.33
2023-03-08T15:14:49.900Z,5.43
2023-03-08T15:17:19.818Z,7.97
2023-03-08T15:19:48.322Z,4.07
2023-03-08T15:22:17.739Z,6.30
2023-03-08T15:24:46.277Z,5.27
2023-03-08T15:27:16.053Z,6.00
2023-03-08T15:29:44.515Z,5.83
2023-03-08T15:32:12.958Z,7.17
2023-03-08T15:34:42.768Z,5.63
2023-03-08T15:37:15.205Z,5.47
2023-03-08T15:39:43.629Z,7.07
2023-03-08T15:42:12.516Z,5.37
2023-03-08T15:44:40.932Z,5.83
2023-03-08T15:47:11.022Z,8.17
2023-03-08T15:49:39.470Z,6.90
2023-03-08T15:52:11.577Z,6.47
2023-03-08T15:54:40.417Z,5.93
2023-03-08T15:57:08.921Z,6.53
2023-03-08T15:59:37.433Z,4.40
2023-03-08T16:02:06.020Z,9.37
2023-03-08T16:04:34.519Z,7.60
2023-03-08T16:07:03.408Z,4.73
2023-03-08T16:09:33.304Z,4.93
2023-03-08T16:12:01.806Z,8.43
2023-03-08T16:14:30.419Z,5.30
2023-03-08T16:16:58.917Z,6.83
2023-03-08T16:19:27.437Z,4.93
2023-03-08T16:21:55.859Z,4.97
2023-03-08T16:24:24.294Z,6.83
2023-03-08T16:26:54.099Z,4.73
2023-03-08T16:29:23.484Z,4.93
2023-03-08T16:31:51.948Z,5.10
2023-03-08T16:34:20.842Z,7.03
2023-03-08T16:36:49.206Z,8.47
2023-03-08T16:39:17.600Z,8.03
2023-03-08T16:41:46.218Z,6.20
2023-03-08T16:44:21.733Z,6.40
2023-03-08T16:46:51.105Z,5.80
2023-03-08T16:49:20.804Z,6.37
2023-03-08T16:51:50.640Z,6.63
2023-03-08T16:54:19.551Z,6.20
2023-03-08T16:56:48.263Z,10.23
2023-03-08T16:59:17.524Z,16.03
2023-03-08T17:01:48.216Z,13.93
2023-03-08T17:04:16.769Z,14.97
2023-03-08T17:06:46.330Z,13.50
2023-03-08T17:09:14.821Z,29.10
2023-03-08T17:11:45.592Z,27.70
2023-03-08T17:14:15.337Z,14.20
2023-03-08T17:16:43.876Z,8.67
2023-03-08T17:19:16.804Z,6.77
2023-03-08T17:21:45.378Z,6.87
2023-03-08T17:24:15.271Z,7.20
2023-03-08T17:26:46.268Z,24.07
2023-03-08T17:29:15.156Z,7.57
2023-03-08T17:31:43.693Z,5.57
2023-03-08T17:34:12.219Z,10.07
2023-03-08T17:36:42.177Z,7.77
2023-03-08T17:39:11.279Z,6.73
2023-03-08T17:41:39.960Z,5.10
2023-03-08T17:44:08.506Z,4.90
2023-03-08T17:46:37.214Z,20.67
2023-03-08T17:49:05.838Z,7.47
2023-03-08T17:51:35.145Z,7.13
2023-03-08T17:54:05.302Z,5.50
2023-03-08T17:56:36.523Z,8.57
2023-03-08T17:59:05.107Z,8.47
2023-03-08T18:01:33.731Z,6.97
2023-03-08T18:04:02.318Z,13.47
2023-03-08T18:06:33.245Z,23.30
2023-03-08T18:09:02.772Z,20.10
2023-03-08T18:11:37.365Z,14.03
2023-03-08T18:14:05.906Z,17.60
2023-03-08T18:16:34.822Z,11.97
2023-03-08T18:19:03.931Z,7.67
2023-03-08T18:21:33.371Z,5.63
2023-03-08T18:24:01.952Z,7.57
2023-03-08T18:26:31.882Z,5.27
2023-03-08T18:29:00.433Z,6.00
2023-03-08T18:31:31.016Z,5.37
2023-03-08T18:33:59.584Z,14.10
2023-03-08T18:36:28.083Z,18.20
2023-03-08T18:38:56.568Z,16.23
2023-03-08T18:41:27.180Z,13.33
2023-03-08T18:43:58.521Z,11.07
2023-03-08T18:46:29.598Z,14.33
2023-03-08T18:48:58.768Z,14.90
2023-03-08T18:51:27.441Z,12.10
2023-03-08T18:53:56.240Z,11.00
2023-03-08T18:56:25.879Z,19.13
2023-03-08T18:58:54.576Z,18.57
2023-03-08T19:01:25.169Z,16.17
2023-03-08T19:03:53.726Z,14.17
2023-03-08T19:06:23.042Z,11.33
2023-03-08T19:08:51.587Z,11.80
2023-03-08T19:11:21.356Z,10.37
2023-03-08T19:13:50.254Z,12.93
2023-03-08T19:16:20.517Z,11.67
2023-03-08T19:18:52.041Z,14.40
2023-03-08T19:21:21.837Z,13.73
2023-03-08T19:23:51.215Z,10.90
2023-03-08T19:26:41.338Z,12.10
2023-03-08T19:29:12.486Z,10.83
2023-03-08T19:31:43.032Z,11.27
2023-03-08T19:34:14.310Z,12.70
2023-03-08T19:36:43.465Z,12.47
2023-03-08T19:39:14.506Z,19.77
2023-03-08T19:41:43.277Z,16.97
2023-03-08T19:44:11.831Z,12.67
2023-03-08T19:46:40.642Z,11.80
2023-03-08T19:49:12.232Z,9.93
2023-03-08T19:51:42.449Z,11.43
2023-03-08T19:54:11.116Z,43.43
2023-03-08T19:56:42.181Z,23.23
2023-03-08T19:59:11.137Z,11.23
2023-03-08T20:01:39.800Z,9.57
2023-03-08T20:04:09.149Z,10.97
2023-03-08T20:06:39.649Z,10.17
2023-03-08T20:09:11.373Z,11.37
2023-03-08T20:11:40.991Z,9.07
2023-03-08T20:14:11.401Z,9.00
2023-03-08T20:16:39.911Z,8.00
2023-03-08T20:19:08.457Z,9.00
2023-03-08T20:21:36.901Z,11.07
2023-03-08T20:24:05.478Z,9.13
2023-03-08T20:26:37.290Z,6.33
2023-03-08T20:29:06.115Z,6.40
2023-03-08T20:31:34.551Z,6.97
2023-03-08T20:34:03.016Z,6.63
2023-03-08T20:36:31.436Z,9.13
2023-03-08T20:39:00.235Z,8.77
2023-03-08T20:41:28.980Z,8.03
2023-03-08T20:43:59.405Z,7.67
2023-03-08T20:46:31.132Z,6.53
2023-03-08T20:49:00.309Z,9.00
2023-03-08T20:51:29.223Z,7.57
2023-03-08T20:53:58.193Z,7.20
2023-03-08T20:56:27.242Z,7.50
2023-03-08T20:59:00.560Z,8.13
2023-03-08T21:01:30.937Z,8.03
2023-03-08T21:04:02.367Z,8.00
2023-03-08T21:06:37.110Z,7.47
2023-03-08T21:09:05.522Z,7.60
2023-03-08T21:11:34.123Z,7.87
2023-03-08T21:14:04.013Z,9.30
2023-03-08T21:16:33.327Z,6.90
2023-03-08T21:19:03.782Z,7.93
2023-03-08T21:21:34.333Z,8.60
2023-03-08T21:24:04.631Z,7.13
2023-03-08T21:26:34.045Z,7.60
2023-03-08T21:29:06.022Z,6.47
2023-03-08T21:31:41.729Z,7.03
2023-03-08T21:34:10.653Z,7.10
2023-03-08T21:36:39.792Z,8.07
2023-03-08T21:39:09.670Z,6.90
2023-03-08T21:41:39.660Z,7.13
2023-03-08T21:44:15.337Z,7.47
2023-03-08T21:46:44.093Z,5.87
2023-03-08T21:49:17.939Z,6.40
2023-03-08T21:51:46.668Z,6.20
2023-03-08T21:54:15.455Z,6.00
2023-03-08T21:56:43.938Z,5.90
2023-03-08T21:59:14.055Z,7.10
2023-03-08T22:01:44.159Z,7.20
2023-03-08T22:04:12.612Z,6.57
2023-03-08T22:06:41.143Z,8.50
2023-03-08T22:09:09.796Z,5.93
2023-03-08T22:11:38.352Z,7.53
2023-03-08T22:14:07.167Z,7.67
2023-03-08T22:16:37.868Z,10.13
2023-03-08T22:19:06.756Z,7.93
2023-03-08T22:21:35.289Z,6.93
2023-03-08T22:24:04.746Z,7.47
2023-03-08T22:26:33.643Z,6.03
2023-03-08T22:29:02.069Z,6.67
2023-03-08T22:31:30.971Z,8.03
2023-03-08T22:34:01.525Z,6.57
2023-03-08T22:36:30.226Z,5.70
2023-03-08T22:38:58.669Z,6.20
2023-03-08T22:41:28.496Z,5.60
2023-03-08T22:43:56.931Z,7.17
2023-03-08T22:46:27.628Z,8.03
2023-03-08T22:48:57.610Z,5.87
2023-03-08T22:51:28.455Z,6.57
2023-03-08T22:53:59.047Z,5.40
2023-03-08T22:56:30.194Z,5.60
2023-03-08T22:58:59.000Z,6.30
2023-03-08T23:01:28.289Z,5.03
2023-03-08T23:03:58.120Z,5.27
2023-03-08T23:06:29.634Z,5.53
2023-03-08T23:08:58.516Z,7.63
2023-03-08T23:11:27.384Z,5.33
2023-03-08T23:13:55.850Z,6.13
2023-03-08T23:16:24.469Z,5.20
2023-03-08T23:18:54.385Z,7.20
2023-03-08T23:21:24.721Z,6.40
2023-03-08T23:23:54.720Z,7.03
2023-03-08T23:26:26.880Z,6.20
2023-03-08T23:28:55.751Z,6.47
2023-03-08T23:31:26.630Z,6.57
2023-03-08T23:33:55.483Z,6.23
2023-03-08T23:36:25.477Z,7.73
2023-03-08T23:38:55.467Z,6.00
2023-03-08T23:41:23.881Z,5.37
2023-03-08T23:43:55.623Z,5.30
2023-03-08T23:46:24.416Z,8.23
2023-03-08T23:48:54.891Z,6.33
2023-03-08T23:51:24.931Z,5.13
2023-03-08T23:53:56.499Z,6.00
2023-03-08T23:56:27.404Z,7.87
2023-03-08T23:58:56.774Z,5.23
